Time;durP1;ratioP1;P1;durP2;ratioP2;P2;SDS_P1;SDS_P2;PMS_P1;PMS_P2;Temp;Humidity;BMP_temperature;BMP_pressure;BME280_temperature;BME280_humidity;BME280_pressure;Samples;Min_cycle;Max_cycle;Signal;HPM_P1;HPM_P2
2022/12/27 00:01:30;;;;;;;24.98;3.83;;;23.90;45.60;;;;;;5078726;28;20131;-64
2022/12/27 00:03:56;;;;;;;22.05;3.80;;;23.80;46.00;;;;;;5076606;28;20071;-66
2022/12/27 00:06:25;;;;;;;32.55;4.03;;;23.70;46.30;;;;;;5082781;28;20072;-66
2022/12/27 00:08:52;;;;;;;23.35;3.70;;;23.60;46.50;;;;;;5080434;28;20076;-65
2022/12/27 00:11:22;;;;;;;38.08;4.65;;;23.50;46.50;;;;;;5076787;28;20170;-65
2022/12/27 00:13:49;;;;;;;32.22;4.63;;;23.40;46.80;;;;;;5075549;28;20101;-66
2022/12/27 00:16:17;;;;;;;20.38;3.95;;;23.20;47.50;;;;;;5071178;28;20097;-65
2022/12/27 00:18:44;;;;;;;24.85;4.07;;;23.10;47.60;;;;;;5074341;28;20525;-65
2022/12/27 00:21:12;;;;;;;26.17;4.57;;;23.00;47.50;;;;;;5074890;28;20138;-68
2022/12/27 00:23:45;;;;;;;32.42;5.57;;;22.80;48.00;;;;;;5073810;28;20076;-67
2022/12/27 00:26:18;;;;;;;45.00;6.55;;;22.70;48.30;;;;;;5077282;28;20074;-67
2022/12/27 00:28:44;;;;;;;42.35;6.40;;;22.60;48.70;;;;;;5075949;28;20593;-67
2022/12/27 00:31:11;;;;;;;37.30;6.03;;;22.40;49.50;;;;;;5075562;28;20087;-66
2022/12/27 00:33:40;;;;;;;32.00;6.13;;;22.20;50.20;;;;;;5076346;28;20073;-68
2022/12/27 00:36:09;;;;;;;43.63;6.75;;;22.10;50.80;;;;;;5075073;28;20155;-67
2022/12/27 00:38:35;;;;;;;48.20;9.48;;;22.00;50.80;;;;;;5083715;28;20098;-67
2022/12/27 00:41:03;;;;;;;58.53;10.48;;;21.80;51.20;;;;;;5084580;28;20076;-67
2022/12/27 00:43:29;;;;;;;42.33;9.02;;;21.60;51.50;;;;;;5078949;28;20069;-66
2022/12/27 00:45:56;;;;;;;47.60;10.80;;;21.40;51.50;;;;;;5082173;28;20487;-67
2022/12/27 00:48:22;;;;;;;48.75;12.90;;;21.40;51.60;;;;;;5078034;28;20080;-65
2022/12/27 00:50:49;;;;;;;52.63;12.45;;;21.20;51.80;;;;;;5083940;28;20150;-66
2022/12/27 00:53:15;;;;;;;63.70;13.05;;;21.10;51.90;;;;;;5082724;28;20581;-68
2022/12/27 00:55:43;;;;;;;42.10;11.35;;;21.00;52.20;;;;;;5081886;28;20143;-67
2022/12/27 00:58:10;;;;;;;47.15;11.55;;;20.90;52.60;;;;;;5077460;28;20111;-64
2022/12/27 01:00:37;;;;;;;51.60;11.95;;;20.80;52.90;;;;;;5079254;28;20092;-65
2022/12/27 01:03:03;;;;;;;58.97;13.98;;;20.70;53.20;;;;;;5081316;28;20160;-67
2022/12/27 01:05:29;;;;;;;60.13;13.45;;;20.50;53.10;;;;;;5076532;28;20064;-67
2022/12/27 01:07:56;;;;;;;62.50;12.98;;;20.40;53.10;;;;;;5080506;28;20065;-64
2022/12/27 01:10:22;;;;;;;61.63;14.23;;;20.30;53.10;;;;;;5078194;28;20100;-66
2022/12/27 01:12:49;;;;;;;55.22;12.88;;;20.20;53.10;;;;;;5076416;28;20069;-65
2022/12/27 01:15:15;;;;;;;48.75;12.15;;;20.10;53.30;;;;;;5079940;28;20077;-66
2022/12/27 01:17:41;;;;;;;66.22;12.88;;;20.00;53.40;;;;;;5081865;28;20118;-64
2022/12/27 01:20:08;;;;;;;66.28;14.52;;;19.80;53.40;;;;;;5079863;28;20177;-66
2022/12/27 01:22:35;;;;;;;61.60;12.05;;;19.80;54.10;;;;;;5081336;28;20172;-66
2022/12/27 01:25:01;;;;;;;67.93;11.80;;;19.70;54.20;;;;;;5080386;28;20093;-67
2022/12/27 01:27:27;;;;;;;63.72;13.95;;;19.60;55.10;;;;;;5080530;28;20080;-64
2022/12/27 01:29:54;;;;;;;59.88;12.20;;;19.60;55.80;;;;;;5077892;28;20088;-64
2022/12/27 01:32:20;;;;;;;63.05;14.52;;;19.50;55.50;;;;;;5081247;28;20581;-65
2022/12/27 01:34:47;;;;;;;71.25;14.95;;;19.40;55.60;;;;;;5079710;28;20076;-66
2022/12/27 01:37:13;;;;;;;56.63;14.48;;;19.40;55.70;;;;;;5077504;28;20154;-66
2022/12/27 01:39:39;;;;;;;83.75;14.90;;;19.30;56.40;;;;;;5077557;28;20081;-67
2022/12/27 01:45:10;;;;;;;64.72;16.50;;;19.10;56.30;;;;;;5084504;28;20099;-66
2022/12/27 01:47:39;;;;;;;73.80;16.35;;;19.00;56.40;;;;;;5081624;28;20091;-67
2022/12/27 01:50:09;;;;;;;77.90;15.70;;;19.00;56.90;;;;;;5077343;28;20440;-66
2022/12/27 01:52:47;;;;;;;58.92;16.10;;;18.90;57.50;;;;;;5085370;28;20149;-67
2022/12/27 01:55:44;;;;;;;59.40;16.65;;;18.80;57.50;;;;;;5079108;28;20457;-66
2022/12/27 01:58:28;;;;;;;71.45;17.05;;;18.70;57.40;;;;;;5078855;28;20120;-69
2022/12/27 02:00:56;;;;;;;71.50;18.35;;;18.60;57.50;;;;;;5078702;28;20129;-66
2022/12/27 02:03:36;;;;;;;66.53;18.02;;;18.60;57.80;;;;;;5079794;28;20065;-66
2022/12/27 02:06:05;;;;;;;61.75;16.40;;;18.50;57.90;;;;;;5085056;28;20069;-65
2022/12/27 02:08:37;;;;;;;80.57;19.25;;;18.50;58.00;;;;;;5077096;28;20069;-64
2022/12/27 02:11:06;;;;;;;72.95;19.75;;;18.40;58.00;;;;;;5071849;28;20075;-67
2022/12/27 02:13:36;;;;;;;51.17;15.82;;;18.30;58.00;;;;;;5084660;28;20083;-66
2022/12/27 02:16:13;;;;;;;58.20;19.08;;;18.20;58.20;;;;;;5079402;28;20070;-66
2022/12/27 02:18:40;;;;;;;54.08;18.42;;;18.10;58.50;;;;;;5082255;28;20091;-65
2022/12/27 02:21:25;;;;;;;57.10;17.50;;;18.00;58.40;;;;;;5081045;28;20438;-66
2022/12/27 02:24:26;;;;;;;85.78;25.38;;;17.90;58.50;;;;;;5083105;28;21562;-64
2022/12/27 02:27:06;;;;;;;91.97;26.48;;;17.90;58.90;;;;;;5071946;28;20117;-63
2022/12/27 02:29:32;;;;;;;85.55;22.40;;;17.90;59.50;;;;;;5076562;28;20083;-64
2022/12/27 02:32:20;;;;;;;88.25;24.23;;;17.90;59.90;;;;;;5079746;28;20088;-64
2022/12/27 02:35:06;;;;;;;59.58;19.92;;;17.80;60.00;;;;;;5072107;28;20093;-63
2022/12/27 02:37:36;;;;;;;62.85;18.85;;;17.70;60.00;;;;;;5076220;28;20135;-62
2022/12/27 02:54:58;;;;;;;68.35;18.58;;;17.40;61.30;;;;;;5024473;28;20139;-63
2022/12/27 02:57:48;;;;;;;71.93;17.20;;;17.30;60.60;;;;;;5023156;28;20165;-61
2022/12/27 03:03:27;;;;;;;72.15;24.50;;;17.20;60.30;;;;;;5021771;28;20089;-62
2022/12/27 03:15:54;;;;;;;70.30;21.65;;;17.00;60.70;;;;;;4974446;28;20116;-62
2022/12/27 03:18:35;;;;;;;77.80;23.73;;;16.90;60.80;;;;;;5024471;28;20554;-63
2022/12/27 03:26:59;;;;;;;100.85;25.33;;;16.80;61.50;;;;;;4986333;28;20120;-64
2022/12/27 03:35:26;;;;;;;83.85;25.42;;;16.80;61.70;;;;;;5027793;28;20135;-65
2022/12/27 03:38:04;;;;;;;74.50;23.75;;;16.80;62.10;;;;;;5026727;28;20070;-63
2022/12/27 03:40:37;;;;;;;90.80;26.77;;;16.80;62.70;;;;;;5027659;28;20090;-66
2022/12/27 03:43:15;;;;;;;73.35;24.63;;;16.80;62.90;;;;;;5028003;28;20090;-66
2022/12/27 03:48:45;;;;;;;78.07;24.17;;;16.70;63.20;;;;;;5026298;28;20096;-64
2022/12/27 03:51:14;;;;;;;88.83;27.63;;;16.60;63.30;;;;;;5027569;28;20078;-65
2022/12/27 03:53:45;;;;;;;99.32;29.52;;;16.60;63.50;;;;;;5027663;28;20101;-65
2022/12/27 03:56:11;;;;;;;82.90;27.92;;;16.50;63.60;;;;;;5074780;28;20151;-66
2022/12/27 03:58:38;;;;;;;81.18;27.60;;;16.50;63.70;;;;;;5077771;28;20084;-65
2022/12/27 04:01:04;;;;;;;114.38;28.75;;;16.40;64.10;;;;;;5073629;28;20415;-66
2022/12/27 04:03:31;;;;;;;88.28;28.02;;;16.40;64.30;;;;;;5074061;28;20073;-67
2022/12/27 04:05:57;;;;;;;93.55;28.02;;;16.30;64.60;;;;;;5086385;28;20477;-66
2022/12/27 04:35:49;;;;;;;138.43;53.60;;;16.10;67.70;;;;;;5082074;28;20083;-67
2022/12/27 04:38:16;;;;;;;160.23;55.65;;;16.00;68.10;;;;;;5080187;28;20155;-64
2022/12/27 04:54:58;;;;;;;191.10;61.08;;;15.90;68.30;;;;;;5076472;28;20126;-65
2022/12/27 04:57:26;;;;;;;183.57;57.10;;;15.80;68.40;;;;;;5080600;28;20146;-70
2022/12/27 05:02:38;;;;;;;165.73;57.30;;;15.80;68.80;;;;;;5079371;28;20127;-67
2022/12/27 05:05:06;;;;;;;172.63;55.33;;;15.80;68.50;;;;;;5079197;28;20101;-66
2022/12/27 05:15:48;;;;;;;163.00;51.72;;;15.70;69.50;;;;;;5075369;28;20122;-65
2022/12/27 05:18:15;;;;;;;142.65;51.92;;;15.70;69.50;;;;;;5081265;28;21594;-64
2022/12/27 05:20:41;;;;;;;138.25;47.80;;;15.60;69.50;;;;;;5077644;28;20099;-66
2022/12/27 05:25:52;;;;;;;143.23;47.30;;;15.50;69.80;;;;;;5078614;28;20019;-64
2022/12/27 05:28:18;;;;;;;;;;;15.50;69.20;;;;;;5077236;28;20089;-64
2022/12/27 05:30:45;;;;;;;162.38;51.97;;;15.50;69.70;;;;;;5073964;28;20015;-64
2022/12/27 05:33:11;;;;;;;;;;;15.50;69.80;;;;;;5075795;28;20138;-64
2022/12/27 05:35:38;;;;;;;147.15;50.75;;;15.50;69.70;;;;;;5081567;28;19968;-64
2022/12/27 05:38:05;;;;;;;146.88;49.15;;;15.60;69.60;;;;;;5078948;28;20096;-65
2022/12/27 05:40:32;;;;;;;144.18;47.67;;;15.50;69.70;;;;;;5084374;28;20090;-66
2022/12/27 05:42:59;;;;;;;136.55;47.10;;;15.50;69.70;;;;;;5075471;28;20539;-66
2022/12/27 05:45:27;;;;;;;133.43;47.25;;;15.50;69.70;;;;;;5079310;28;20065;-64
2022/12/27 05:47:53;;;;;;;148.82;48.85;;;15.50;69.90;;;;;;5082143;28;20088;-66
2022/12/27 05:50:19;;;;;;;;;;;15.50;70.60;;;;;;5079257;28;20551;-66
2022/12/27 05:52:46;;;;;;;126.53;47.17;;;15.50;70.70;;;;;;5080652;28;20363;-64
2022/12/27 05:55:12;;;;;;;138.13;48.00;;;15.50;71.10;;;;;;5086691;28;20143;-67
2022/12/27 05:57:39;;;;;;;161.43;56.25;;;15.40;71.20;;;;;;5076228;28;20195;-65
2022/12/27 06:00:06;;;;;;;159.10;52.42;;;15.40;71.20;;;;;;5081440;28;20088;-65
2022/12/27 06:02:33;;;;;;;164.88;60.35;;;15.40;71.70;;;;;;5078982;28;20073;-68
2022/12/27 06:04:59;;;;;;;142.98;55.80;;;15.50;71.90;;;;;;5084080;28;20468;-65
2022/12/27 06:07:25;;;;;;;;;;;15.50;72.30;;;;;;5086818;28;20085;-67
2022/12/27 06:09:52;;;;;;;153.35;62.50;;;15.40;72.10;;;;;;5082932;28;19996;-67
2022/12/27 06:12:18;;;;;;;;;;;15.40;72.10;;;;;;5075143;28;20435;-66
2022/12/27 06:14:44;;;;;;;163.70;56.53;;;15.40;72.00;;;;;;5085357;28;20439;-65
2022/12/27 06:17:10;;;;;;;;;;;15.30;72.10;;;;;;5079674;28;20080;-66
2022/12/27 06:19:36;;;;;;;155.90;57.22;;;15.30;72.20;;;;;;5080874;28;19983;-64
2022/12/27 06:22:02;;;;;;;;;;;15.20;72.60;;;;;;5078998;28;20100;-66
2022/12/27 06:24:29;;;;;;;133.35;55.53;;;15.20;72.90;;;;;;5081593;28;19967;-64
2022/12/27 06:26:55;;;;;;;;;;;15.20;73.10;;;;;;5081976;28;20079;-65
2022/12/27 06:29:21;;;;;;;162.93;54.55;;;15.80;74.00;;;;;;5083929;28;19992;-64
2022/12/27 06:31:48;;;;;;;165.65;56.53;;;15.10;73.70;;;;;;5078087;28;20091;-64
2022/12/27 06:34:14;;;;;;;135.30;54.70;;;15.10;73.10;;;;;;5074380;28;20072;-64
2022/12/27 06:36:41;;;;;;;142.40;51.80;;;15.10;73.50;;;;;;5082420;28;20081;-64
2022/12/27 06:39:07;;;;;;;141.40;54.15;;;15.00;73.20;;;;;;5078552;28;20572;-65
2022/12/27 06:41:33;;;;;;;;;;;15.00;73.40;;;;;;5078691;28;20506;-66
2022/12/27 06:44:00;;;;;;;134.57;54.05;;;14.90;73.90;;;;;;5079900;28;19957;-66
2022/12/27 06:46:26;;;;;;;;;;;14.90;73.70;;;;;;5079206;28;20064;-66
2022/12/27 06:48:52;;;;;;;131.77;54.08;;;14.90;74.00;;;;;;5077787;28;20024;-63
2022/12/27 06:51:20;;;;;;;151.52;52.55;;;14.80;73.80;;;;;;5077074;28;20069;-65
2022/12/27 06:53:47;;;;;;;148.00;54.50;;;14.80;73.90;;;;;;5078576;28;20522;-67
2022/12/27 06:56:16;;;;;;;142.18;52.88;;;14.80;74.70;;;;;;5076852;28;20175;-67
2022/12/27 06:58:42;;;;;;;149.95;51.78;;;14.80;74.50;;;;;;5077180;28;20111;-66
2022/12/27 07:01:15;;;;;;;128.88;49.95;;;14.70;74.00;;;;;;5083497;28;20114;-66
2022/12/27 07:03:41;;;;;;;131.70;49.92;;;14.70;74.30;;;;;;5080861;28;20111;-64
2022/12/27 07:06:13;;;;;;;134.45;50.40;;;14.70;74.60;;;;;;5081151;28;20065;-67
2022/12/27 07:08:39;;;;;;;147.65;50.28;;;14.60;74.40;;;;;;5078276;28;20115;-65
2022/12/27 07:11:08;;;;;;;169.10;52.65;;;14.50;74.70;;;;;;5078831;28;20081;-65
2022/12/27 07:13:36;;;;;;;148.07;52.00;;;14.50;75.10;;;;;;5077625;28;20072;-65
2022/12/27 07:16:04;;;;;;;136.13;48.28;;;14.50;75.00;;;;;;5076760;28;20084;-66
2022/12/27 07:18:31;;;;;;;123.43;48.45;;;14.50;75.30;;;;;;5076940;28;20073;-66
2022/12/27 07:20:57;;;;;;;137.15;46.28;;;14.40;75.90;;;;;;5079829;28;20092;-66
2022/12/27 07:23:23;;;;;;;;;;;14.40;76.30;;;;;;5074666;28;20065;-67
2022/12/27 07:25:50;;;;;;;127.18;46.72;;;14.50;76.20;;;;;;5077832;28;19965;-67
2022/12/27 07:28:16;;;;;;;121.65;44.97;;;14.40;76.20;;;;;;5078737;28;20669;-65
2022/12/27 07:30:43;;;;;;;119.78;44.22;;;14.30;76.60;;;;;;5075746;28;20084;-67
2022/12/27 07:33:09;;;;;;;;;;;14.30;77.10;;;;;;5078661;28;20141;-65
2022/12/27 07:35:35;;;;;;;128.80;42.47;;;14.10;77.40;;;;;;5077433;28;19960;-65
2022/12/27 07:38:01;;;;;;;;;;;14.20;77.90;;;;;;5077541;28;20445;-66
2022/12/27 07:40:28;;;;;;;110.68;38.83;;;14.20;78.20;;;;;;5078715;28;19984;-65
2022/12/27 07:42:54;;;;;;;;;;;14.10;77.80;;;;;;5082246;28;20067;-66
2022/12/27 07:45:20;;;;;;;109.68;37.80;;;14.00;78.40;;;;;;5080838;28;19980;-66
2022/12/27 07:47:49;;;;;;;;;;;14.00;78.80;;;;;;5080141;28;20084;-66
2022/12/27 07:50:16;;;;;;;120.47;36.97;;;14.00;78.40;;;;;;5079392;28;19952;-67
2022/12/27 07:52:42;;;;;;;120.80;39.47;;;14.00;78.70;;;;;;5077438;28;20085;-66
2022/12/27 07:55:08;;;;;;;;;;;14.00;79.20;;;;;;5079690;28;20067;-66
2022/12/27 07:57:35;;;;;;;123.53;41.85;;;13.90;79.10;;;;;;5085581;28;20249;-67
2022/12/27 08:00:01;;;;;;;;;;;13.80;79.30;;;;;;5082314;28;20583;-67
2022/12/27 08:02:27;;;;;;;132.82;44.30;;;13.80;79.60;;;;;;5085324;28;19961;-66
2022/12/27 08:04:53;;;;;;;;;;;13.60;80.10;;;;;;5081230;28;20067;-66
2022/12/27 08:07:20;;;;;;;146.63;45.80;;;13.50;95.20;;;;;;5089883;28;19956;-65
2022/12/27 08:09:47;;;;;;;165.20;48.15;;;13.60;80.20;;;;;;5082147;28;20152;-65
2022/12/27 08:12:14;;;;;;;175.00;48.30;;;13.40;95.50;;;;;;5083478;28;20549;-66
2022/12/27 08:14:41;;;;;;;154.85;47.10;;;13.60;91.40;;;;;;5083463;28;20086;-68
2022/12/27 08:17:13;;;;;;;162.60;48.92;;;13.50;80.30;;;;;;5078974;28;20545;-66
2022/12/27 08:19:39;;;;;;;149.65;52.85;;;13.50;80.30;;;;;;5083735;28;20088;-67
2022/12/27 08:22:05;;;;;;;;;;;13.50;80.80;;;;;;5087069;28;20562;-67
2022/12/27 08:24:32;;;;;;;181.82;55.58;;;;;;;;;;5080752;28;19977;-67
2022/12/27 08:26:58;;;;;;;182.25;58.92;;;13.40;99.90;;;;;;5080506;28;20096;-66
2022/12/27 08:29:24;;;;;;;;;;;13.20;81.30;;;;;;5081769;28;20073;-67
2022/12/27 08:31:50;;;;;;;185.20;60.03;;;;;;;;;;5080523;28;19956;-68
2022/12/27 08:34:17;;;;;;;192.50;65.85;;;12.90;97.90;;;;;;5077004;28;20130;-64
2022/12/27 08:36:43;;;;;;;220.65;69.32;;;12.80;98.40;;;;;;5082695;28;20077;-67
2022/12/27 08:39:10;;;;;;;200.10;67.95;;;13.20;99.50;;;;;;5086241;28;20073;-64
2022/12/27 08:41:37;;;;;;;235.23;77.05;;;13.20;81.90;;;;;;5078488;28;20071;-65
2022/12/27 08:44:04;;;;;;;234.57;76.15;;;13.20;81.80;;;;;;5081330;28;20072;-65
2022/12/27 08:46:31;;;;;;;230.82;74.03;;;13.20;81.60;;;;;;5081760;28;20433;-64
2022/12/27 08:48:57;;;;;;;;;;;13.30;81.60;;;;;;5078600;28;20085;-65
2022/12/27 08:51:23;;;;;;;227.88;74.43;;;13.20;94.30;;;;;;5079046;28;19957;-65
2022/12/27 08:53:50;;;;;;;223.13;76.28;;;13.80;96.00;;;;;;5079450;28;20080;-65
2022/12/27 08:56:16;;;;;;;;;;;13.10;81.80;;;;;;5078354;28;20069;-65
2022/12/27 08:58:42;;;;;;;230.57;74.28;;;;;;;;;;5083862;28;19957;-66
2022/12/27 09:01:10;;;;;;;222.45;74.85;;;13.00;96.60;;;;;;5081787;28;20088;-66
2022/12/27 09:03:36;;;;;;;213.27;73.20;;;12.80;97.30;;;;;;5079397;28;20069;-66
2022/12/27 09:06:16;;;;;;;206.80;73.53;;;13.10;93.00;;;;;;5081488;28;20156;-66
2022/12/27 09:08:44;;;;;;;222.70;77.57;;;13.50;97.70;;;;;;5083779;28;20065;-65
2022/12/27 09:11:11;;;;;;;223.18;72.18;;;12.80;97.00;;;;;;5086903;28;20441;-67
2022/12/27 09:13:39;;;;;;;221.93;72.53;;;13.00;96.50;;;;;;5080986;28;20078;-65
2022/12/27 09:16:15;;;;;;;205.07;71.25;;;12.70;95.90;;;;;;5078389;28;20119;-67
2022/12/27 09:18:43;;;;;;;197.90;72.50;;;12.90;95.10;;;;;;5082731;28;20084;-67
2022/12/27 09:21:12;;;;;;;225.10;71.93;;;13.10;98.10;;;;;;5078100;28;20550;-65
2022/12/27 09:23:39;;;;;;;210.00;73.78;;;13.00;81.40;;;;;;5081392;28;20168;-67
2022/12/27 09:26:07;;;;;;;189.63;64.47;;;12.60;97.70;;;;;;5076807;28;20077;-65
2022/12/27 09:28:34;;;;;;;203.18;66.65;;;12.70;97.70;;;;;;5082301;28;20122;-65
2022/12/27 09:31:01;;;;;;;201.75;66.35;;;13.10;99.10;;;;;;5084842;28;20073;-65
2022/12/27 09:33:28;;;;;;;208.77;65.65;;;12.80;81.50;;;;;;5078020;28;20094;-67
2022/12/27 09:36:10;;;;;;;212.10;65.55;;;12.90;81.30;;;;;;5077223;28;20069;-66
2022/12/27 09:38:37;;;;;;;172.50;59.97;;;12.70;90.00;;;;;;5084582;28;20422;-66
2022/12/27 09:41:24;;;;;;;179.68;59.42;;;12.50;94.50;;;;;;5083404;28;20084;-66
2022/12/27 09:43:57;;;;;;;182.73;64.97;;;12.50;96.00;;;;;;5078897;28;20070;-66
2022/12/27 09:46:49;;;;;;;209.85;65.32;;;12.80;81.70;;;;;;5075852;28;20151;-66
2022/12/27 09:49:24;;;;;;;192.43;62.28;;;12.70;81.60;;;;;;5081703;28;20094;-64
2022/12/27 09:51:57;;;;;;;195.18;62.25;;;12.50;98.40;;;;;;5079971;28;20082;-67
2022/12/27 09:55:11;;;;;;;193.45;64.22;;;12.60;82.30;;;;;;5083251;28;20068;-67
2022/12/27 09:57:43;;;;;;;199.20;70.93;;;12.80;96.00;;;;;;5080478;28;20169;-67
2022/12/27 10:00:16;;;;;;;194.35;71.18;;;12.60;81.50;;;;;;5084593;28;20096;-66
2022/12/27 10:02:43;;;;;;;194.70;66.80;;;12.20;94.90;;;;;;5083005;28;20176;-66
2022/12/27 10:05:20;;;;;;;197.32;68.80;;;12.20;97.30;;;;;;5080312;28;20073;-66
2022/12/27 10:08:11;;;;;;;205.43;66.18;;;12.50;81.90;;;;;;5078965;28;20074;-65
2022/12/27 10:10:38;;;;;;;173.73;64.65;;;12.30;95.60;;;;;;5079499;28;20080;-65
2022/12/27 10:13:18;;;;;;;;;;;12.50;83.00;;;;;;5083351;28;20126;-65
2022/12/27 10:15:51;;;;;;;186.52;63.88;;;13.00;95.30;;;;;;5080031;28;19956;-66
2022/12/27 10:18:41;;;;;;;206.10;64.50;;;12.70;95.80;;;;;;5082632;28;20415;-65
2022/12/27 10:21:07;;;;;;;194.25;65.20;;;;;;;;;;5080270;28;20084;-64
2022/12/27 10:23:37;;;;;;;201.18;63.72;;;12.20;96.30;;;;;;5080551;28;20072;-66
2022/12/27 10:26:10;;;;;;;193.90;63.75;;;12.50;97.00;;;;;;5078238;28;20077;-65
2022/12/27 10:28:43;;;;;;;192.88;64.80;;;12.70;96.20;;;;;;5078386;28;20079;-64
2022/12/27 10:31:18;;;;;;;198.48;64.40;;;12.30;82.90;;;;;;5082155;28;20160;-65
2022/12/27 10:33:46;;;;;;;199.98;64.97;;;12.70;96.30;;;;;;5070803;28;20088;-64
2022/12/27 10:36:18;;;;;;;196.45;64.22;;;12.40;83.30;;;;;;5075000;28;20410;-65
2022/12/27 10:38:45;;;;;;;187.50;63.75;;;12.30;96.80;;;;;;5081288;28;20081;-64
2022/12/27 10:41:32;;;;;;;207.75;65.20;;;12.40;83.60;;;;;;5073327;28;20087;-66
2022/12/27 10:43:59;;;;;;;207.82;67.38;;;12.30;94.10;;;;;;5070251;28;20073;-65
2022/12/27 10:46:30;;;;;;;186.45;65.07;;;12.30;98.90;;;;;;5080160;28;20073;-66
2022/12/27 10:49:04;;;;;;;201.13;66.57;;;13.10;98.80;;;;;;5081870;28;20136;-65
2022/12/27 10:51:36;;;;;;;202.15;67.85;;;12.30;85.00;;;;;;5079501;28;20073;-65
2022/12/27 10:54:11;;;;;;;202.77;71.70;;;12.60;99.80;;;;;;5072710;28;20065;-66
2022/12/27 10:56:40;;;;;;;193.60;68.18;;;12.30;91.30;;;;;;5081188;28;20130;-66
2022/12/27 10:59:24;;;;;;;210.80;65.60;;;12.30;84.60;;;;;;5079200;28;20073;-64
2022/12/27 11:02:02;;;;;;;200.70;67.85;;;12.50;99.90;;;;;;5082077;28;20061;-64
2022/12/27 11:04:30;;;;;;;201.23;69.25;;;12.30;84.90;;;;;;5076683;28;20159;-65
2022/12/27 11:07:00;;;;;;;204.00;68.75;;;12.30;85.30;;;;;;5077984;28;20429;-65
2022/12/27 11:09:34;;;;;;;173.75;66.80;;;13.00;99.90;;;;;;5079384;28;20091;-66
2022/12/27 11:12:19;;;;;;;213.65;69.75;;;12.00;92.20;;;;;;5078549;28;20525;-66
2022/12/27 11:15:05;;;;;;;212.45;72.85;;;12.20;85.50;;;;;;5081391;28;20482;-66
2022/12/27 11:17:44;;;;;;;195.23;71.93;;;11.90;85.70;;;;;;5078914;28;20051;-65
2022/12/27 11:20:11;;;;;;;201.05;69.22;;;;;;;;;;5082861;28;20151;-65
2022/12/27 11:23:03;;;;;;;191.38;69.38;;;12.10;99.90;;;;;;5077801;28;20088;-66
2022/12/27 11:25:31;;;;;;;196.60;70.05;;;12.10;85.80;;;;;;5073387;28;20138;-67
2022/12/27 11:28:04;;;;;;;198.38;69.78;;;12.20;98.50;;;;;;5075394;28;20077;-67
2022/12/27 11:30:39;;;;;;;191.27;67.00;;;12.50;97.00;;;;;;5079854;28;20084;-66
2022/12/27 11:33:40;;;;;;;160.52;66.03;;;11.90;98.20;;;;;;5074092;28;20096;-67
2022/12/27 11:36:10;;;;;;;182.02;70.63;;;12.00;87.00;;;;;;5011855;28;20132;-65
2022/12/27 11:38:38;;;;;;;205.05;67.57;;;12.00;86.60;;;;;;5016436;28;20062;-65
2022/12/27 11:41:14;;;;;;;187.52;69.78;;;12.10;86.50;;;;;;5018146;28;20088;-65
2022/12/27 11:44:07;;;;;;;189.00;65.77;;;12.20;91.40;;;;;;5012967;28;20055;-64
2022/12/27 11:46:52;;;;;;;201.93;69.05;;;12.30;87.70;;;;;;5015495;28;20135;-66
2022/12/27 11:49:33;;;;;;;186.32;66.35;;;12.00;91.40;;;;;;5014750;28;20041;-65
2022/12/27 11:52:18;;;;;;;174.27;66.18;;;12.20;99.90;;;;;;5016255;28;20122;-66
2022/12/27 11:55:02;;;;;;;194.95;68.95;;;12.10;88.90;;;;;;5017168;28;20173;-64
2022/12/27 11:57:56;;;;;;;176.70;62.42;;;12.00;95.00;;;;;;5014124;28;20108;-66
2022/12/27 12:00:26;;;;;;;188.48;64.82;;;12.00;86.20;;;;;;5014312;28;20030;-66
2022/12/27 12:03:04;;;;;;;192.48;64.60;;;11.70;98.00;;;;;;5013090;28;20136;-66
2022/12/27 12:05:30;;;;;;;166.40;60.97;;;;;;;;;;5014982;28;20086;-66
2022/12/27 12:08:15;;;;;;;169.57;65.25;;;12.20;93.60;;;;;;5014543;28;20172;-66
2022/12/27 12:11:08;;;;;;;181.02;61.95;;;11.80;94.20;;;;;;5021809;28;20097;-66
2022/12/27 12:13:59;;;;;;;173.80;61.58;;;11.90;94.30;;;;;;5075707;28;20501;-64
2022/12/27 12:17:03;;;;;;;164.85;63.92;;;11.80;99.70;;;;;;5076659;28;20076;-66
2022/12/27 12:19:53;;;;;;;202.02;69.15;;;12.20;86.60;;;;;;5076239;28;20476;-67
2022/12/27 12:22:49;;;;;;;202.07;64.75;;;12.20;86.40;;;;;;5082267;28;20397;-66
2022/12/27 12:25:44;;;;;;;191.68;68.28;;;12.90;88.70;;;;;;5063555;28;20093;-67
2022/12/27 12:28:38;;;;;;;186.27;63.08;;;12.00;93.00;;;;;;5078848;28;20406;-66
2022/12/27 12:31:48;;;;;;;176.85;63.78;;;12.30;86.00;;;;;;5082919;28;20086;-67
2022/12/27 12:34:29;;;;;;;188.93;66.63;;;12.30;86.70;;;;;;5080328;28;20107;-66
2022/12/27 12:37:33;;;;;;;188.38;67.03;;;12.40;86.70;;;;;;5083201;28;20083;-67
2022/12/27 12:40:41;;;;;;;202.50;70.97;;;12.40;97.00;;;;;;5082843;28;20081;-64
2022/12/27 12:43:30;;;;;;;230.13;73.78;;;12.50;96.70;;;;;;5009375;28;20170;-67
2022/12/27 12:46:08;;;;;;;197.32;72.45;;;12.30;97.50;;;;;;5010380;28;20132;-66
2022/12/27 12:48:54;;;;;;;224.85;75.80;;;12.40;97.60;;;;;;5010633;28;20502;-67
2022/12/27 12:51:48;;;;;;;218.45;77.53;;;12.50;92.80;;;;;;5010339;28;20086;-66
2022/12/27 12:54:45;;;;;;;216.50;79.55;;;12.60;84.30;;;;;;5010198;28;20101;-66
2022/12/27 12:57:14;;;;;;;252.00;82.82;;;12.60;89.10;;;;;;5011112;28;20168;-65
2022/12/27 13:00:08;;;;;;;244.60;86.40;;;12.70;98.40;;;;;;5013486;28;20098;-65
2022/12/27 13:02:55;;;;;;;259.27;91.18;;;12.80;96.80;;;;;;5012503;28;20109;-66
2022/12/27 13:05:52;;;;;;;266.85;89.82;;;12.50;95.70;;;;;;5008716;28;20444;-66
2022/12/27 13:08:18;;;;;;;274.63;94.00;;;12.70;83.60;;;;;;5009521;28;20071;-66
2022/12/27 13:11:03;;;;;;;;;;;12.70;84.00;;;;;;5009389;28;20086;-65
2022/12/27 13:13:36;;;;;;;267.83;91.22;;;12.90;96.10;;;;;;5010135;28;19973;-65
2022/12/27 13:16:17;;;;;;;274.20;92.10;;;12.60;96.30;;;;;;5012448;28;20177;-65
2022/12/27 13:18:59;;;;;;;254.43;92.90;;;12.90;91.30;;;;;;5074185;28;20441;-66
2022/12/27 13:21:53;;;;;;;227.82;91.97;;;12.70;95.60;;;;;;5081721;28;20130;-65
2022/12/27 13:25:10;;;;;;;251.63;94.20;;;12.60;83.70;;;;;;5079093;28;20096;-66
2022/12/27 13:27:57;;;;;;;229.93;92.20;;;12.60;84.20;;;;;;5029048;28;20180;-64
2022/12/27 13:30:36;;;;;;;251.23;89.78;;;12.70;84.00;;;;;;5029522;28;20131;-67
2022/12/27 13:33:28;;;;;;;246.95;86.05;;;12.80;83.80;;;;;;5028830;28;20517;-66
2022/12/27 13:36:19;;;;;;;204.88;78.03;;;12.80;83.50;;;;;;5028175;28;20077;-65
2022/12/27 13:39:10;;;;;;;210.73;79.60;;;12.90;82.30;;;;;;5029385;28;20101;-67
2022/12/27 13:41:42;;;;;;;217.68;78.93;;;12.90;81.30;;;;;;5027438;28;20144;-64
2022/12/27 13:44:49;;;;;;;193.95;77.70;;;12.90;80.70;;;;;;5027190;28;20096;-65
2022/12/27 13:48:03;;;;;;;202.27;78.85;;;13.00;81.10;;;;;;5011795;28;20570;-65
2022/12/27 13:50:36;;;;;;;197.05;77.40;;;13.00;80.30;;;;;;4930911;29;20084;-67
2022/12/27 13:53:37;;;;;;;185.23;74.20;;;13.00;80.40;;;;;;4931456;29;20090;-65
2022/12/27 13:56:33;;;;;;;195.30;68.90;;;13.00;80.40;;;;;;4896528;29;20084;-64
2022/12/27 13:59:21;;;;;;;186.90;74.50;;;13.00;79.40;;;;;;4951090;28;20544;-65
2022/12/27 14:02:05;;;;;;;179.00;70.53;;;13.00;79.10;;;;;;4978021;28;20086;-64
2022/12/27 14:04:50;;;;;;;195.75;72.57;;;13.00;78.80;;;;;;4977212;28;20158;-64
2022/12/27 14:07:31;;;;;;;173.65;68.45;;;13.00;78.10;;;;;;4979706;28;20602;-67
2022/12/27 14:09:57;;;;;;;187.30;72.88;;;12.90;76.60;;;;;;4978516;28;20087;-66
2022/12/27 14:12:45;;;;;;;;;;;12.90;76.40;;;;;;4980168;28;20482;-66
2022/12/27 14:15:17;;;;;;;230.15;74.53;;;13.00;75.80;;;;;;4975490;28;19971;-66
2022/12/27 14:17:53;;;;;;;207.23;72.93;;;13.00;75.60;;;;;;4977747;28;20090;-65
2022/12/27 14:20:49;;;;;;;184.00;73.07;;;13.00;75.90;;;;;;4973649;28;20095;-65
2022/12/27 14:23:36;;;;;;;197.05;75.45;;;13.00;76.30;;;;;;4977951;28;20487;-65
2022/12/27 14:26:39;;;;;;;186.18;69.75;;;13.00;76.10;;;;;;5008841;28;20607;-64
2022/12/27 14:29:27;;;;;;;202.35;72.72;;;13.00;76.60;;;;;;5081024;28;20527;-65
2022/12/27 14:32:09;;;;;;;204.27;72.85;;;13.00;77.50;;;;;;5076078;28;20126;-66
2022/12/27 14:35:00;;;;;;;190.88;71.10;;;13.10;76.60;;;;;;5081664;28;20080;-66
2022/12/27 14:37:45;;;;;;;209.02;78.28;;;13.00;75.60;;;;;;5079376;28;20096;-66
2022/12/27 14:40:31;;;;;;;195.85;74.75;;;12.90;77.10;;;;;;5084813;28;20088;-65
2022/12/27 14:43:16;;;;;;;200.93;71.90;;;12.90;76.10;;;;;;5081217;28;20065;-65
2022/12/27 14:46:03;;;;;;;192.23;75.55;;;13.00;76.20;;;;;;5080627;28;20076;-68